createdAt,value
2023-04-16T00:00:50.532Z,100194.71
2023-04-16T00:03:39.817Z,100199.13
2023-04-16T00:06:14.547Z,100203.14
2023-04-16T00:08:48.649Z,100202.63
2023-04-16T00:11:22.222Z,100199.09
2023-04-16T00:13:55.949Z,100200.48
2023-04-16T00:16:29.564Z,100201.18
2023-04-16T00:19:03.357Z,100196.99
2023-04-16T00:21:37.008Z,100194.50
2023-04-16T00:24:10.968Z,100193.45
2023-04-16T00:26:46.710Z,100195.10
2023-04-16T00:29:20.499Z,100192.27
2023-04-16T00:31:53.876Z,100194.04
2023-04-16T00:34:27.646Z,100195.77
2023-04-16T00:37:01.146Z,100203.59
2023-04-16T00:39:34.677Z,100201.80
2023-04-16T00:42:08.766Z,100202.36
2023-04-16T00:44:42.829Z,100207.26
2023-04-16T00:47:17.059Z,100202.67
2023-04-16T00:49:52.036Z,100201.73
2023-04-16T00:52:26.332Z,100202.71
2023-04-16T00:55:00.266Z,100201.56
2023-04-16T00:57:34.120Z,100198.83
2023-04-16T01:00:09.061Z,100202.14
2023-04-16T01:02:43.010Z,100202.76
2023-04-16T01:05:17.191Z,100205.51
2023-04-16T01:07:50.741Z,100208.48
2023-04-16T01:10:24.633Z,100207.63
2023-04-16T01:12:57.956Z,100210.95
2023-04-16T01:15:31.875Z,100211.04
2023-04-16T01:18:15.352Z,100209.07
2023-04-16T01:20:48.809Z,100203.64
2023-04-16T01:23:22.999Z,100205.30
2023-04-16T01:25:56.241Z,100209.17
2023-04-16T01:28:30.259Z,100206.83
2023-04-16T01:31:04.273Z,100205.85
2023-04-16T01:34:01.521Z,100207.17
2023-04-16T01:36:35.079Z,100208.94
2023-04-16T01:39:12.184Z,100209.23
2023-04-16T01:41:46.026Z,100211.84
2023-04-16T01:44:19.192Z,100212.20
2023-04-16T01:46:52.972Z,100213.27
2023-04-16T01:49:28.805Z,100212.67
2023-04-16T01:52:02.405Z,100215.45
2023-04-16T01:54:36.938Z,100211.83
2023-04-16T01:57:11.587Z,100215.50
2023-04-16T01:59:45.125Z,100216.05
2023-04-16T02:02:19.584Z,100214.71
2023-04-16T02:04:53.341Z,100220.39
2023-04-16T02:07:27.674Z,100225.60
2023-04-16T02:10:01.616Z,100225.73
2023-04-16T02:12:35.278Z,100228.59
2023-04-16T02:15:10.813Z,100231.00
2023-04-16T02:17:46.833Z,100231.17
2023-04-16T02:20:20.821Z,100232.95
2023-04-16T02:22:59.030Z,100237.33
2023-04-16T02:25:33.285Z,100237.33
2023-04-16T02:28:06.802Z,100238.68
2023-04-16T02:30:45.703Z,100236.14
2023-04-16T02:33:20.644Z,100240.29
2023-04-16T02:36:07.692Z,100243.31
2023-04-16T02:38:41.277Z,100243.84
2023-04-16T02:41:15.073Z,100249.67
2023-04-16T02:43:48.889Z,100251.92
2023-04-16T02:46:22.378Z,100252.26
2023-04-16T02:48:57.034Z,100256.73
2023-04-16T02:51:31.380Z,100259.38
2023-04-16T02:54:08.045Z,100266.89
2023-04-16T02:56:41.902Z,100272.64
2023-04-16T02:59:15.301Z,100271.30
2023-04-16T03:01:49.196Z,100277.10
2023-04-16T03:04:23.352Z,100275.59
2023-04-16T03:06:57.199Z,100276.83
2023-04-16T03:09:32.057Z,100277.77
2023-04-16T03:12:08.712Z,100283.31
2023-04-16T03:14:41.974Z,100283.42
2023-04-16T03:17:15.885Z,100283.29
2023-04-16T03:19:51.178Z,100285.23
2023-04-16T03:22:26.253Z,100285.84
2023-04-16T03:25:00.084Z,100286.08
2023-04-16T03:27:37.799Z,100287.63
2023-04-16T03:30:14.744Z,100286.15
2023-04-16T03:32:48.682Z,100285.26
2023-04-16T03:35:22.935Z,100288.23
2023-04-16T03:37:57.383Z,100284.96
2023-04-16T03:40:31.487Z,100288.77
2023-04-16T03:43:06.457Z,100286.93
2023-04-16T03:45:45.588Z,100287.89
2023-04-16T03:48:19.746Z,100290.58
2023-04-16T03:50:54.452Z,100292.53
2023-04-16T03:53:28.358Z,100290.36
2023-04-16T03:56:01.778Z,100291.26
2023-04-16T03:58:36.278Z,100294.05
2023-04-16T04:01:09.949Z,100293.94
2023-04-16T04:03:44.099Z,100297.05
2023-04-16T04:06:19.255Z,100302.20
2023-04-16T04:08:53.227Z,100308.23
2023-04-16T04:11:27.206Z,100307.67
2023-04-16T04:14:00.940Z,100306.55
2023-04-16T04:16:35.043Z,100307.98
2023-04-16T04:19:09.096Z,100306.09
2023-04-16T04:21:43.164Z,100310.08
2023-04-16T04:24:17.067Z,100313.34
2023-04-16T04:26:50.667Z,100317.62
2023-04-16T04:29:24.856Z,100315.63
2023-04-16T04:31:59.504Z,100318.58
2023-04-16T04:34:33.178Z,100316.82
2023-04-16T04:37:07.243Z,100313.59
2023-04-16T04:39:40.804Z,100320.20
2023-04-16T04:42:14.917Z,100326.74
2023-04-16T04:44:49.131Z,100329.52
2023-04-16T04:47:22.769Z,100329.14
2023-04-16T04:49:56.506Z,100326.23
2023-04-16T04:52:30.152Z,100331.55
2023-04-16T04:55:04.336Z,100335.56
2023-04-16T04:57:38.529Z,100337.50
2023-04-16T05:00:14.346Z,100338.89
2023-04-16T05:02:54.187Z,100335.38
2023-04-16T05:05:27.893Z,100338.56
2023-04-16T05:08:01.788Z,100342.77
2023-04-16T05:10:35.499Z,100341.77
2023-04-16T05:13:08.953Z,100344.95
2023-04-16T05:15:42.787Z,100345.95
2023-04-16T05:18:16.714Z,100347.20
2023-04-16T05:20:50.553Z,100348.97
2023-04-16T05:23:24.346Z,100347.31
2023-04-16T05:25:58.652Z,100349.23
2023-04-16T05:28:34.250Z,100352.90
2023-04-16T05:31:08.513Z,100356.00
2023-04-16T05:33:42.332Z,100355.30
2023-04-16T05:36:16.478Z,100359.48
2023-04-16T05:38:50.276Z,100360.27
2023-04-16T05:41:23.768Z,100363.69
2023-04-16T05:43:57.390Z,100365.33
2023-04-16T05:46:31.755Z,100363.86
2023-04-16T05:49:05.572Z,100358.98
2023-04-16T05:51:39.194Z,100356.98
2023-04-16T05:54:13.118Z,100362.42
2023-04-16T05:56:46.729Z,100369.58
2023-04-16T05:59:20.209Z,100377.58
2023-04-16T06:01:54.270Z,100378.11
2023-04-16T06:04:28.291Z,100382.29
2023-04-16T06:07:01.942Z,100384.20
2023-04-16T06:09:36.576Z,100385.21
2023-04-16T06:12:10.331Z,100385.73
2023-04-16T06:14:43.884Z,100391.20
2023-04-16T06:17:18.059Z,100387.63
2023-04-16T06:19:51.908Z,100389.19
2023-04-16T06:22:25.981Z,100391.36
2023-04-16T06:24:59.538Z,100394.27
2023-04-16T06:27:34.354Z,100400.25
2023-04-16T06:30:13.358Z,100403.16
2023-04-16T06:32:48.279Z,100404.59
2023-04-16T06:35:22.579Z,100404.30
2023-04-16T06:37:56.689Z,100403.74
2023-04-16T06:40:30.364Z,100406.43
2023-04-16T06:43:04.530Z,100405.56
2023-04-16T06:45:38.268Z,100404.02
2023-04-16T06:48:12.429Z,100402.28
2023-04-16T06:50:46.203Z,100401.77
2023-04-16T06:53:20.164Z,100399.35
2023-04-16T06:55:53.741Z,100401.15
2023-04-16T06:58:27.789Z,100402.14
2023-04-16T07:01:02.966Z,100404.86
2023-04-16T07:03:37.220Z,100407.13
2023-04-16T07:06:11.444Z,100409.86
2023-04-16T07:08:45.759Z,100409.67
2023-04-16T07:11:20.060Z,100412.45
2023-04-16T07:13:54.287Z,100418.20
2023-04-16T07:16:28.325Z,100419.80
2023-04-16T07:19:01.904Z,100423.89
2023-04-16T07:21:36.155Z,100422.10
2023-04-16T07:24:10.544Z,100424.12
2023-04-16T07:26:44.553Z,100428.53
2023-04-16T07:29:18.201Z,100435.58
2023-04-16T07:31:53.292Z,100441.23
2023-04-16T07:34:26.847Z,100439.25
2023-04-16T07:37:00.673Z,100443.06
2023-04-16T07:39:34.647Z,100446.00
2023-04-16T07:42:08.387Z,100447.30
2023-04-16T07:44:42.586Z,100450.14
2023-04-16T07:47:16.514Z,100449.47
2023-04-16T07:50:01.511Z,100450.57
2023-04-16T07:52:35.083Z,100454.24
2023-04-16T07:55:10.150Z,100451.74
2023-04-16T07:57:44.278Z,100458.17
2023-04-16T08:00:19.096Z,100463.21
2023-04-16T08:02:52.869Z,100470.05
2023-04-16T08:05:27.030Z,100470.43
2023-04-16T08:08:00.770Z,100471.20
2023-04-16T08:10:34.821Z,100474.17
2023-04-16T08:13:08.607Z,100479.63
2023-04-16T08:15:42.505Z,100482.76
2023-04-16T08:18:16.265Z,100483.77
2023-04-16T08:20:49.791Z,100483.06
2023-04-16T08:23:23.662Z,100487.48
2023-04-16T08:25:58.014Z,100490.21
2023-04-16T08:28:31.731Z,100492.27
2023-04-16T08:31:05.947Z,100489.27
2023-04-16T08:33:39.746Z,100485.83
2023-04-16T08:36:13.404Z,100486.90
2023-04-16T08:38:47.409Z,100487.29
2023-04-16T08:41:23.625Z,100485.92
2023-04-16T08:44:02.025Z,100485.19
2023-04-16T08:46:38.461Z,100484.25
2023-04-16T08:49:15.903Z,100484.21
2023-04-16T08:51:55.197Z,100489.03
2023-04-16T08:54:39.802Z,100487.37
2023-04-16T08:57:16.874Z,100494.85
2023-04-16T08:59:51.973Z,100497.75
2023-04-16T09:02:27.823Z,100496.05
2023-04-16T09:05:05.348Z,100499.04
2023-04-16T09:07:40.463Z,100500.85
2023-04-16T09:10:16.439Z,100505.45
2023-04-16T09:12:50.512Z,100504.97
2023-04-16T09:15:24.365Z,100499.90
2023-04-16T09:17:58.539Z,100504.63
2023-04-16T09:20:32.428Z,100507.44
2023-04-16T09:23:06.596Z,100505.70
2023-04-16T09:25:40.739Z,100503.83
2023-04-16T09:28:14.347Z,100504.08
2023-04-16T09:30:48.559Z,100509.13
2023-04-16T09:33:25.216Z,100510.06
2023-04-16T09:35:59.147Z,100516.86
2023-04-16T09:38:49.720Z,100525.36
2023-04-16T09:41:26.863Z,100527.42
2023-04-16T09:44:02.493Z,100525.55
2023-04-16T09:46:39.275Z,100527.19
2023-04-16T09:49:15.806Z,100529.31
2023-04-16T09:51:55.085Z,100529.27
2023-04-16T09:54:29.785Z,100525.66
2023-04-16T09:57:05.161Z,100525.88
2023-04-16T09:59:39.287Z,100528.21
2023-04-16T10:02:15.226Z,100533.00
2023-04-16T10:04:54.760Z,100532.98
2023-04-16T10:07:32.009Z,100535.65
2023-04-16T10:10:06.802Z,100539.92
2023-04-16T10:12:40.895Z,100538.89
2023-04-16T10:15:15.202Z,100538.40
2023-04-16T10:17:49.571Z,100544.28
2023-04-16T10:20:25.599Z,100542.95
2023-04-16T10:23:00.549Z,100545.15
2023-04-16T10:25:34.793Z,100548.55
2023-04-16T10:28:09.142Z,100550.77
2023-04-16T10:30:48.818Z,100552.92
2023-04-16T10:33:24.909Z,100557.73
2023-04-16T10:36:12.529Z,100560.55
2023-04-16T10:38:52.744Z,100561.40
2023-04-16T10:41:30.115Z,100560.96
2023-04-16T10:44:11.380Z,100561.23
2023-04-16T10:46:46.218Z,100563.80
2023-04-16T10:49:21.620Z,100560.52
2023-04-16T10:51:59.668Z,100559.33
2023-04-16T10:54:36.740Z,100558.39
2023-04-16T10:57:12.657Z,100559.83
2023-04-16T10:59:46.887Z,100561.04
2023-04-16T11:02:30.512Z,100563.17
2023-04-16T11:05:05.650Z,100562.14
2023-04-16T11:07:39.974Z,100564.82
2023-04-16T11:10:16.475Z,100567.99
2023-04-16T11:12:52.066Z,100566.56
2023-04-16T11:15:31.571Z,100563.80
2023-04-16T11:18:07.510Z,100566.77
2023-04-16T11:20:45.191Z,100569.88
2023-04-16T11:23:19.229Z,100571.57
2023-04-16T11:25:57.466Z,100572.80
2023-04-16T11:28:38.067Z,100574.41
2023-04-16T11:31:16.056Z,100571.21
2023-04-16T11:33:50.851Z,100574.52
2023-04-16T11:36:26.954Z,100574.58
2023-04-16T11:39:06.703Z,100576.44
2023-04-16T11:41:47.888Z,100574.68
2023-04-16T11:44:25.837Z,100577.10
2023-04-16T11:47:00.178Z,100573.75
2023-04-16T11:49:34.590Z,100573.80
2023-04-16T11:52:09.035Z,100574.01
2023-04-16T11:54:43.120Z,100571.19
2023-04-16T11:57:25.776Z,100573.65
2023-04-16T12:00:02.186Z,100566.19
2023-04-16T12:02:48.442Z,100563.35
2023-04-16T12:05:34.151Z,100560.46
2023-04-16T12:08:09.976Z,100560.27
2023-04-16T12:10:58.703Z,100555.29
2023-04-16T12:13:40.480Z,100561.15
2023-04-16T12:16:22.473Z,100561.63
2023-04-16T12:19:06.961Z,100557.05
2023-04-16T12:21:44.686Z,100552.59
2023-04-16T12:24:21.564Z,100544.04
2023-04-16T12:26:58.173Z,100540.72
2023-04-16T12:29:32.289Z,100531.89
2023-04-16T12:32:06.260Z,100531.38
2023-04-16T12:34:54.154Z,100532.18
2023-04-16T12:37:28.344Z,100531.32
2023-04-16T12:40:02.145Z,100529.59
2023-04-16T12:42:37.735Z,100529.25
2023-04-16T12:45:12.288Z,100526.83
2023-04-16T12:47:46.491Z,100521.95
2023-04-16T12:50:20.840Z,100523.88
2023-04-16T12:52:55.992Z,100529.98
2023-04-16T12:55:30.150Z,100529.74
2023-04-16T12:58:04.476Z,100526.81
2023-04-16T13:00:38.881Z,100528.59
2023-04-16T13:03:12.734Z,100529.94
2023-04-16T13:05:47.227Z,100534.48
2023-04-16T13:08:21.272Z,100536.52
2023-04-16T13:11:05.293Z,100534.33
2023-04-16T13:13:39.799Z,100529.48
2023-04-16T13:16:13.765Z,100531.89
2023-04-16T13:18:47.880Z,100528.72
2023-04-16T13:21:21.638Z,100525.65
2023-04-16T13:23:55.654Z,100523.98
2023-04-16T13:26:29.810Z,100524.04
2023-04-16T13:29:04.701Z,100523.75
2023-04-16T13:31:39.108Z,100521.56
2023-04-16T13:34:12.908Z,100523.30
2023-04-16T13:36:47.339Z,100527.80
2023-04-16T13:39:21.646Z,100528.48
2023-04-16T13:41:56.780Z,100527.23
2023-04-16T13:44:31.849Z,100528.23
2023-04-16T13:47:06.764Z,100531.48
2023-04-16T13:49:42.247Z,100526.71
2023-04-16T13:52:17.702Z,100530.16
2023-04-16T13:54:53.340Z,100532.08
2023-04-16T13:57:30.600Z,100535.53
2023-04-16T14:00:07.941Z,100532.68
2023-04-16T14:02:43.300Z,100534.91
2023-04-16T14:05:18.161Z,100534.18
2023-04-16T14:07:51.993Z,100534.36
2023-04-16T14:10:27.207Z,100539.80
2023-04-16T14:13:02.634Z,100534.86
2023-04-16T14:15:36.701Z,100535.21
2023-04-16T14:18:10.803Z,100530.89
2023-04-16T14:20:45.528Z,100531.34
2023-04-16T14:23:20.470Z,100535.81
2023-04-16T14:25:55.983Z,100535.45
2023-04-16T14:28:30.182Z,100536.32
2023-04-16T14:31:05.105Z,100534.31
2023-04-16T14:33:39.839Z,100535.60
2023-04-16T14:36:14.711Z,100537.23
2023-04-16T14:38:51.400Z,100535.64
2023-04-16T14:41:25.991Z,100533.12
2023-04-16T14:44:01.619Z,100536.64
2023-04-16T14:46:36.964Z,100536.98
2023-04-16T14:49:12.289Z,100536.04
2023-04-16T14:51:49.399Z,100536.02
2023-04-16T14:54:24.019Z,100538.91
2023-04-16T14:56:58.811Z,100542.95
2023-04-16T14:59:33.250Z,100541.29
2023-04-16T15:02:07.680Z,100543.05
2023-04-16T15:04:41.743Z,100550.26
2023-04-16T15:07:19.239Z,100558.00
2023-04-16T15:09:54.761Z,100561.34
2023-04-16T15:12:29.468Z,100560.25
2023-04-16T15:15:03.894Z,100560.51
2023-04-16T15:17:39.270Z,100554.42
2023-04-16T15:20:16.640Z,100556.40
2023-04-16T15:22:56.141Z,100557.63
2023-04-16T15:25:30.727Z,100562.66
2023-04-16T15:28:06.800Z,100565.70
2023-04-16T15:31:01.691Z,100558.17
2023-04-16T15:33:35.720Z,100559.96
2023-04-16T15:36:12.379Z,100560.27
2023-04-16T15:38:47.355Z,100562.15
2023-04-16T15:41:25.522Z,100567.42
2023-04-16T15:44:01.306Z,100566.02
2023-04-16T15:46:38.399Z,100566.60
2023-04-16T15:49:12.228Z,100566.30
2023-04-16T15:51:47.984Z,100568.84
2023-04-16T15:54:23.313Z,100569.98
2023-04-16T15:56:59.832Z,100564.95
2023-04-16T15:59:36.454Z,100568.21
2023-04-16T16:02:13.027Z,100568.39
2023-04-16T16:04:49.228Z,100569.85
2023-04-16T16:07:25.974Z,100573.52
2023-04-16T16:10:01.534Z,100574.20
2023-04-16T16:12:44.176Z,100578.29
2023-04-16T16:15:20.274Z,100582.92
2023-04-16T16:17:59.428Z,100581.55
2023-04-16T16:20:34.942Z,100589.83
2023-04-16T16:23:11.022Z,100595.63
2023-04-16T16:25:50.864Z,100600.96
2023-04-16T16:28:27.556Z,100605.48
2023-04-16T16:31:04.065Z,100605.75
2023-04-16T16:33:40.394Z,100606.95
2023-04-16T16:36:15.823Z,100611.44
2023-04-16T16:38:55.681Z,100616.21
2023-04-16T16:41:30.529Z,100615.98
2023-04-16T16:44:06.674Z,100615.15
2023-04-16T16:46:42.029Z,100621.60
2023-04-16T16:49:18.249Z,100626.64
2023-04-16T16:51:53.231Z,100626.48
2023-04-16T16:54:28.753Z,100630.45
2023-04-16T16:57:04.220Z,100634.23
2023-04-16T16:59:54.323Z,100636.45
2023-04-16T17:02:31.408Z,100639.49
2023-04-16T17:05:06.689Z,100639.41
2023-04-16T17:07:40.896Z,100640.20
2023-04-16T17:10:22.494Z,100642.89
2023-04-16T17:12:58.044Z,100649.79
2023-04-16T17:15:35.081Z,100650.91
2023-04-16T17:18:11.878Z,100651.02
2023-04-16T17:20:48.427Z,100652.46
2023-04-16T17:23:25.912Z,100656.08
2023-04-16T17:26:03.651Z,100659.94
2023-04-16T17:28:38.432Z,100667.66
2023-04-16T17:31:14.738Z,100667.34
2023-04-16T17:33:49.917Z,100669.93
2023-04-16T17:36:27.391Z,100674.83
2023-04-16T17:39:03.277Z,100672.59
2023-04-16T17:41:40.860Z,100678.45
2023-04-16T17:44:17.091Z,100678.36
2023-04-16T17:46:55.734Z,100678.76
2023-04-16T17:49:32.435Z,100677.14
2023-04-16T17:52:08.382Z,100678.46
2023-04-16T17:54:45.833Z,100680.55
2023-04-16T17:57:21.186Z,100686.00
2023-04-16T17:59:57.260Z,100686.58
2023-04-16T18:02:40.886Z,100690.61
2023-04-16T18:05:20.716Z,100691.75
2023-04-16T18:07:58.510Z,100693.33
2023-04-16T18:10:36.801Z,100695.14
2023-04-16T18:13:14.272Z,100700.64
2023-04-16T18:15:52.011Z,100703.66
2023-04-16T18:18:32.160Z,100703.29
2023-04-16T18:21:07.023Z,100705.46
2023-04-16T18:23:43.119Z,100711.33
2023-04-16T18:26:22.493Z,100714.47
2023-04-16T18:28:57.625Z,100717.39
2023-04-16T18:31:33.850Z,100722.64
2023-04-16T18:34:08.670Z,100723.41
2023-04-16T18:36:44.396Z,100722.67
2023-04-16T18:39:21.270Z,100726.85
2023-04-16T18:41:57.977Z,100726.45
2023-04-16T18:44:33.187Z,100720.38
2023-04-16T18:47:13.334Z,100722.58
2023-04-16T18:49:53.551Z,100729.32
2023-04-16T18:52:30.744Z,100730.11
2023-04-16T18:55:08.071Z,100727.60
2023-04-16T18:57:43.512Z,100728.95
2023-04-16T19:00:21.945Z,100726.02
2023-04-16T19:02:58.961Z,100730.14
2023-04-16T19:05:36.049Z,100726.54
2023-04-16T19:08:11.521Z,100727.27
2023-04-16T19:10:49.290Z,100730.46
2023-04-16T19:13:23.698Z,100727.95
2023-04-16T19:16:12.709Z,100729.21
2023-04-16T19:18:48.963Z,100732.59
2023-04-16T19:21:28.557Z,100733.27
2023-04-16T19:24:05.654Z,100733.81
2023-04-16T19:26:42.228Z,100734.39
2023-04-16T19:29:28.434Z,100733.24
2023-04-16T19:32:08.229Z,100732.05
2023-04-16T19:34:47.354Z,100732.38
2023-04-16T19:37:25.023Z,100735.25
2023-04-16T19:40:03.076Z,100735.02
2023-04-16T19:42:41.294Z,100735.81
2023-04-16T19:45:17.189Z,100735.86
2023-04-16T19:47:57.759Z,100725.86
2023-04-16T19:50:39.998Z,100719.36
2023-04-16T19:53:18.059Z,100722.69
2023-04-16T19:56:15.452Z,100725.30
2023-04-16T19:58:50.387Z,100723.92
2023-04-16T20:01:26.355Z,100728.14
2023-04-16T20:04:02.952Z,100727.74
2023-04-16T20:06:39.401Z,100728.48
2023-04-16T20:09:13.502Z,100728.92
2023-04-16T20:11:48.555Z,100728.96
2023-04-16T20:14:23.072Z,100732.54
2023-04-16T20:16:58.555Z,100731.73
2023-04-16T20:19:38.561Z,100733.59
2023-04-16T20:22:16.426Z,100730.39
2023-04-16T20:24:57.217Z,100728.90
2023-04-16T20:27:32.076Z,100730.05
2023-04-16T20:30:10.851Z,100730.88
2023-04-16T20:32:45.726Z,100730.52
2023-04-16T20:35:20.509Z,100733.98
2023-04-16T20:37:54.710Z,100737.84
2023-04-16T20:40:31.401Z,100736.02
2023-04-16T20:43:10.825Z,100734.63
2023-04-16T20:45:46.345Z,100737.74
2023-04-16T20:48:21.250Z,100735.75
2023-04-16T20:51:00.452Z,100735.82
2023-04-16T20:53:35.685Z,100739.65
2023-04-16T20:56:10.321Z,100738.41
2023-04-16T20:58:45.131Z,100735.77
2023-04-16T21:01:20.854Z,100737.35
2023-04-16T21:03:54.945Z,100742.41
2023-04-16T21:06:33.601Z,100740.23
2023-04-16T21:09:08.011Z,100735.55
2023-04-16T21:11:42.131Z,100734.09
2023-04-16T21:14:16.049Z,100734.61
2023-04-16T21:16:49.984Z,100732.27
2023-04-16T21:19:24.074Z,100729.86
2023-04-16T21:21:58.336Z,100734.55
2023-04-16T21:24:33.043Z,100731.58
2023-04-16T21:27:06.928Z,100733.95
2023-04-16T21:29:41.014Z,100731.11
2023-04-16T21:32:14.774Z,100728.23
2023-04-16T21:34:48.293Z,100731.70
2023-04-16T21:37:22.240Z,100731.33
2023-04-16T21:39:56.021Z,100733.48
2023-04-16T21:42:29.843Z,100736.86
2023-04-16T21:45:04.041Z,100734.05
2023-04-16T21:47:37.860Z,100732.98
2023-04-16T21:50:13.356Z,100732.86
2023-04-16T21:52:47.718Z,100734.05
2023-04-16T21:55:21.644Z,100736.04
2023-04-16T21:57:55.414Z,100738.00
2023-04-16T22:00:29.466Z,100739.13
2023-04-16T22:03:04.547Z,100738.18
2023-04-16T22:05:38.594Z,100739.66
2023-04-16T22:08:23.991Z,100736.90
2023-04-16T22:11:02.178Z,100731.73
2023-04-16T22:13:36.739Z,100737.83
2023-04-16T22:16:11.873Z,100735.98
2023-04-16T22:18:46.739Z,100734.13
2023-04-16T22:21:20.789Z,100736.48
2023-04-16T22:23:54.543Z,100736.92
2023-04-16T22:26:28.589Z,100740.33
2023-04-16T22:29:02.951Z,100738.10
2023-04-16T22:31:37.333Z,100739.05
2023-04-16T22:34:11.339Z,100737.80
2023-04-16T22:36:45.595Z,100738.30
2023-04-16T22:39:19.397Z,100737.82
2023-04-16T22:41:53.313Z,100741.13
2023-04-16T22:44:26.970Z,100744.28
2023-04-16T22:47:00.919Z,100744.91
2023-04-16T22:49:35.271Z,100740.05
2023-04-16T22:52:09.205Z,100743.25
2023-04-16T22:54:43.358Z,100745.61
2023-04-16T22:57:17.674Z,100741.58
2023-04-16T22:59:51.755Z,100739.66
2023-04-16T23:02:25.930Z,100739.33
2023-04-16T23:05:01.090Z,100737.94
2023-04-16T23:07:34.834Z,100733.31
2023-04-16T23:10:09.833Z,100729.58
2023-04-16T23:12:43.980Z,100728.70
2023-04-16T23:15:17.833Z,100731.98
2023-04-16T23:17:51.373Z,100736.84
2023-04-16T23:20:25.258Z,100735.61
2023-04-16T23:22:59.284Z,100732.73
2023-04-16T23:25:32.956Z,100731.45
2023-04-16T23:28:07.051Z,100727.06
2023-04-16T23:30:40.972Z,100727.05
2023-04-16T23:33:14.860Z,100725.54
2023-04-16T23:35:50.222Z,100727.48
2023-04-16T23:38:23.867Z,100724.86
2023-04-16T23:41:00.463Z,100722.30
2023-04-16T23:43:35.057Z,100719.52
2023-04-16T23:46:08.908Z,100720.81
2023-04-16T23:48:42.501Z,100719.66
2023-04-16T23:51:16.069Z,100714.77
2023-04-16T23:53:49.858Z,100712.05
2023-04-16T23:56:23.354Z,100713.40
2023-04-16T23:58:57.230Z,100713.88
